Terminal Aerodrome Forecast
Issued by NWS Spokane, WA

Home | Current Version | Previous Version | Text Only | Print | Product List | Glossary On
Versions: 1 2 3 4 5 6 7 8 9 10 11 12
000
FTUS46 KOTX 282320
TAFEAT
TAF
KEAT 282320Z 2900/2924 31010G15KT P6SM VCSH BKN060 BKN100
     FM290300 31009KT P6SM SCT060 BKN100
     FM290900 31007KT P6SM FEW080 BKN150
     FM292000 30016G25KT P6SM FEW050 SCT140=

USA.gov is the U.S. government's official web portal to all federal, state and local government web resources and services.